Terminal Aerodrome Forecast
Issued by NWS

Home | Current Version | Previous Version | Text Only | Print | Product List | Glossary On
Versions: 1 2 3 4 5 6 7 8 9 10 11 12 13 14 15 16 17
500
FTAK31 PAJN 051720
TAFAKT
TAF
PAKT 051720Z 0518/0618 33010KT P6SM -SHRA SCT015 SCT025 OVC060
      TEMPO 0518/0520 BKN015 OVC025
     FM052000 27008KT P6SM OVC050
     FM060000 13005KT P6SM BKN050 BKN070
     FM060600 13004KT 6SM BR BKN025 OVC040
     FM061100 18009KT P6SM VCSH SCT025 OVC040
      AMD LTD TO CLD VIS AND WIND 0606/0615=

USA.gov is the U.S. government's official web portal to all federal, state and local government web resources and services.